createdAt,value
2017-04-11T00:00:32.599Z,0
2017-04-11T00:01:13.480Z,0
2017-04-11T00:01:54.354Z,0
2017-04-11T00:02:35.235Z,0
2017-04-11T00:03:16.109Z,0
2017-04-11T00:03:56.994Z,0
2017-04-11T00:04:37.867Z,0
2017-04-11T00:05:18.755Z,0
2017-04-11T00:05:59.627Z,0
2017-04-11T00:06:40.515Z,0
2017-04-11T00:07:21.395Z,0
2017-04-11T00:08:02.275Z,0
2017-04-11T00:08:43.194Z,0
2017-04-11T00:09:24.040Z,0
2017-04-11T00:10:04.922Z,0
2017-04-11T00:10:45.808Z,0
2017-04-11T00:11:26.683Z,0
2017-04-11T00:12:07.559Z,0
2017-04-11T00:12:48.427Z,0
2017-04-11T00:13:29.305Z,0
2017-04-11T00:14:10.186Z,0
2017-04-11T00:14:51.065Z,0
2017-04-11T00:15:31.949Z,0
2017-04-11T00:16:12.823Z,0
2017-04-11T00:16:53.698Z,0
2017-04-11T00:17:34.580Z,0
2017-04-11T00:18:15.460Z,0
2017-04-11T00:18:56.334Z,0
2017-04-11T00:19:37.211Z,0
2017-04-11T00:20:18.091Z,0
2017-04-11T00:20:58.971Z,0
2017-04-11T00:21:39.852Z,0
2017-04-11T00:22:20.730Z,0
2017-04-11T00:23:01.618Z,0
2017-04-11T00:23:42.493Z,0
2017-04-11T00:24:23.372Z,0
2017-04-11T00:25:04.253Z,0
2017-04-11T00:25:45.168Z,0
2017-04-11T00:26:26.051Z,0
2017-04-11T00:27:06.929Z,0
2017-04-11T00:27:47.807Z,0
2017-04-11T00:28:28.680Z,0
2017-04-11T00:29:09.563Z,0
2017-04-11T00:29:50.449Z,0
2017-04-11T00:30:31.323Z,0
2017-04-11T00:31:12.201Z,0
2017-04-11T00:31:53.072Z,0
2017-04-11T00:32:33.942Z,0
2017-04-11T00:33:14.870Z,0
2017-04-11T00:33:55.749Z,0
2017-04-11T00:34:36.629Z,0
2017-04-11T00:35:17.522Z,0
2017-04-11T00:35:58.402Z,0
2017-04-11T00:36:39.286Z,0
2017-04-11T00:37:20.166Z,0
2017-04-11T00:38:01.043Z,0
2017-04-11T00:38:41.923Z,0
2017-04-11T00:39:22.796Z,0
2017-04-11T00:40:03.674Z,0
2017-04-11T00:40:44.583Z,0
2017-04-11T00:41:25.469Z,0
2017-04-11T00:42:06.358Z,0
2017-04-11T00:42:47.231Z,0
2017-04-11T00:43:28.113Z,0
2017-04-11T00:44:08.995Z,0
2017-04-11T00:44:49.871Z,0
2017-04-11T00:45:30.750Z,0
2017-04-11T00:46:11.632Z,0
2017-04-11T00:46:52.506Z,0
2017-04-11T00:47:33.391Z,0
2017-04-11T00:48:14.252Z,0
2017-04-11T00:48:55.134Z,0
2017-04-11T00:49:36.008Z,0
2017-04-11T00:50:16.900Z,0
2017-04-11T00:50:57.764Z,0
2017-04-11T00:51:38.639Z,0
2017-04-11T00:52:19.519Z,0
2017-04-11T00:53:00.404Z,0
2017-04-11T00:53:41.285Z,0
2017-04-11T00:54:22.170Z,0
2017-04-11T00:55:03.044Z,0
2017-04-11T00:55:43.923Z,0
2017-04-11T00:56:24.815Z,0
2017-04-11T00:57:05.700Z,0
2017-04-11T00:57:46.577Z,0
2017-04-11T00:58:27.452Z,0
2017-04-11T00:59:08.327Z,0
2017-04-11T00:59:49.214Z,0
2017-04-11T01:00:30.094Z,0
2017-04-11T01:01:10.974Z,0
2017-04-11T01:01:51.850Z,0
2017-04-11T01:02:32.769Z,0
2017-04-11T01:03:13.607Z,0
2017-04-11T01:03:54.472Z,0
2017-04-11T01:04:35.366Z,0
2017-04-11T01:05:16.252Z,0
2017-04-11T01:05:57.145Z,0
2017-04-11T01:06:38.027Z,0
2017-04-11T01:07:18.900Z,0
2017-04-11T01:07:59.784Z,0
2017-04-11T01:08:40.664Z,0
2017-04-11T01:09:21.537Z,0
2017-04-11T01:10:02.421Z,0
2017-04-11T01:10:43.300Z,0
2017-04-11T01:13:02.554Z,0
2017-04-11T01:13:43.442Z,0
2017-04-11T01:14:24.319Z,0
2017-04-11T01:15:05.235Z,0
2017-04-11T01:15:46.113Z,0
2017-04-11T01:16:28.733Z,0
2017-04-11T01:17:09.611Z,0
2017-04-11T01:17:52.017Z,0
2017-04-11T01:18:32.902Z,0
2017-04-11T01:19:13.784Z,0
2017-04-11T01:19:54.682Z,0
2017-04-11T01:20:35.554Z,0
2017-04-11T01:21:16.432Z,0
2017-04-11T01:21:57.301Z,0
2017-04-11T01:22:38.173Z,0
2017-04-11T01:23:19.052Z,0
2017-04-11T01:23:59.926Z,0
2017-04-11T01:24:40.800Z,0
2017-04-11T01:25:21.680Z,0
2017-04-11T01:26:02.559Z,0
2017-04-11T01:26:43.439Z,0
2017-04-11T01:27:24.311Z,0
2017-04-11T01:28:05.186Z,0
2017-04-11T01:28:46.073Z,0
2017-04-11T01:29:26.955Z,0
2017-04-11T01:30:09.734Z,0
2017-04-11T01:30:50.607Z,0
2017-04-11T01:31:31.481Z,0
2017-04-11T01:32:12.359Z,0
2017-04-11T01:32:53.239Z,0
2017-04-11T01:33:34.124Z,0
2017-04-11T01:34:15.000Z,0
2017-04-11T01:34:55.872Z,0
2017-04-11T01:35:36.753Z,0
2017-04-11T01:36:17.635Z,0
2017-04-11T01:36:58.516Z,0
2017-04-11T01:37:39.401Z,0
2017-04-11T01:38:20.279Z,0
2017-04-11T01:39:01.195Z,0
2017-04-11T01:39:42.029Z,0
2017-04-11T01:40:22.907Z,0
2017-04-11T01:41:03.787Z,0
2017-04-11T01:41:46.235Z,0
2017-04-11T01:42:27.118Z,0
2017-04-11T01:43:08.003Z,0
2017-04-11T01:43:48.873Z,0
2017-04-11T01:44:29.748Z,0
2017-04-11T01:45:10.626Z,0
2017-04-11T01:45:51.502Z,0
2017-04-11T01:46:32.376Z,0
2017-04-11T01:47:13.253Z,0
2017-04-11T01:47:56.020Z,0
2017-04-11T01:48:36.891Z,0
2017-04-11T01:49:17.771Z,0
2017-04-11T01:49:58.644Z,0
2017-04-11T01:50:39.518Z,0
2017-04-11T01:51:20.404Z,0
2017-04-11T01:52:01.270Z,0
2017-04-11T01:52:42.148Z,0
2017-04-11T01:53:23.028Z,0
2017-04-11T01:54:03.917Z,0
2017-04-11T01:54:44.795Z,0
2017-04-11T01:55:25.673Z,0
2017-04-11T01:56:06.551Z,0
2017-04-11T01:56:47.428Z,0
2017-04-11T01:57:28.303Z,0
2017-04-11T01:58:09.180Z,0
2017-04-11T01:58:50.061Z,0
2017-04-11T01:59:30.942Z,0
2017-04-11T02:00:13.737Z,0
2017-04-11T02:00:54.616Z,0
2017-04-11T02:01:35.494Z,0
2017-04-11T02:02:16.377Z,0
2017-04-11T02:02:59.236Z,0
2017-04-11T02:03:40.116Z,0
2017-04-11T02:04:20.998Z,0
2017-04-11T02:05:01.874Z,0
2017-04-11T02:05:42.756Z,0
2017-04-11T02:06:23.638Z,0
2017-04-11T02:07:07.882Z,0
2017-04-11T02:07:48.760Z,0
2017-04-11T02:08:29.638Z,0
2017-04-11T02:09:10.562Z,0
2017-04-11T02:09:51.438Z,0
2017-04-11T02:10:32.306Z,0
2017-04-11T02:11:14.891Z,0
2017-04-11T02:11:57.748Z,0
2017-04-11T02:12:38.624Z,0
2017-04-11T02:13:24.045Z,0
2017-04-11T02:14:04.927Z,0
2017-04-11T02:14:45.807Z,0
2017-04-11T02:15:28.247Z,0
2017-04-11T02:16:09.119Z,0
2017-04-11T02:16:49.993Z,0
2017-04-11T02:17:30.872Z,0
2017-04-11T02:18:11.751Z,0
2017-04-11T02:18:52.624Z,0
2017-04-11T02:19:33.497Z,0
2017-04-11T02:20:14.374Z,0
2017-04-11T02:20:55.245Z,0
2017-04-11T02:21:36.130Z,0
2017-04-11T02:22:17.001Z,0
2017-04-11T02:22:59.391Z,0
2017-04-11T02:23:40.272Z,0
2017-04-11T02:24:21.148Z,0
2017-04-11T02:25:02.025Z,0
2017-04-11T02:25:44.739Z,0
2017-04-11T02:26:25.598Z,0
2017-04-11T02:27:06.477Z,0
2017-04-11T02:27:47.353Z,0
2017-04-11T02:28:28.240Z,0
2017-04-11T02:29:09.121Z,0
2017-04-11T02:29:50.000Z,0
2017-04-11T02:30:30.871Z,0
2017-04-11T02:31:11.739Z,0
2017-04-11T02:31:52.610Z,0
2017-04-11T02:32:33.489Z,0
2017-04-11T02:33:14.377Z,0
2017-04-11T02:33:55.258Z,0
2017-04-11T02:34:36.142Z,0
2017-04-11T02:35:17.024Z,0
2017-04-11T02:35:57.901Z,0
2017-04-11T02:36:38.770Z,0
2017-04-11T02:37:19.650Z,0
2017-04-11T02:38:00.530Z,0
2017-04-11T02:38:41.399Z,0
2017-04-11T02:39:22.274Z,0
2017-04-11T02:40:03.155Z,0
2017-04-11T02:40:44.037Z,0
2017-04-11T02:41:24.922Z,0
2017-04-11T02:42:05.804Z,0
2017-04-11T02:42:46.685Z,0
2017-04-11T02:43:27.559Z,0
2017-04-11T02:44:10.247Z,0
2017-04-11T02:44:51.124Z,0
2017-04-11T02:45:33.885Z,0
2017-04-11T02:46:16.407Z,0
2017-04-11T02:46:57.286Z,0
2017-04-11T02:47:39.741Z,0
2017-04-11T02:48:20.619Z,0
2017-04-11T02:49:01.502Z,0
2017-04-11T02:49:42.382Z,0
2017-04-11T02:50:23.255Z,0
2017-04-11T02:51:04.131Z,0
2017-04-11T02:51:45.009Z,0
2017-04-11T02:52:25.884Z,0
2017-04-11T02:53:06.753Z,0
2017-04-11T02:53:47.638Z,0
2017-04-11T02:54:28.523Z,0
2017-04-11T02:55:09.399Z,0
2017-04-11T02:55:50.280Z,0
2017-04-11T02:56:31.156Z,0
2017-04-11T02:57:12.029Z,0
2017-04-11T02:57:52.909Z,0
2017-04-11T02:58:33.792Z,0
2017-04-11T02:59:14.669Z,0
2017-04-11T02:59:55.546Z,0
2017-04-11T03:00:38.240Z,0
2017-04-11T03:01:19.122Z,0
2017-04-11T03:01:59.997Z,0
2017-04-11T03:02:40.909Z,0
2017-04-11T03:03:21.788Z,0
2017-04-11T03:04:02.654Z,0
2017-04-11T03:04:45.384Z,0
2017-04-11T03:05:26.912Z,0
2017-04-11T03:06:07.787Z,0
2017-04-11T03:06:49.521Z,0
2017-04-11T03:07:30.425Z,0
2017-04-11T03:08:11.305Z,0
2017-04-11T03:08:53.912Z,0
2017-04-11T03:09:34.787Z,0
2017-04-11T03:10:15.671Z,0
2017-04-11T03:10:56.544Z,0
2017-04-11T03:11:37.421Z,0
2017-04-11T03:12:18.307Z,0
2017-04-11T03:12:59.185Z,0
2017-04-11T03:13:40.069Z,0
2017-04-11T03:14:20.942Z,0
2017-04-11T03:15:01.828Z,0
2017-04-11T03:15:42.706Z,0
2017-04-11T03:16:23.586Z,0
2017-04-11T03:17:06.252Z,0
2017-04-11T03:17:47.123Z,0
2017-04-11T03:18:28.036Z,0
2017-04-11T03:19:08.880Z,0
2017-04-11T03:19:49.755Z,0
2017-04-11T03:20:30.634Z,0
2017-04-11T03:21:11.508Z,0
2017-04-11T03:21:52.390Z,0
2017-04-11T03:22:33.264Z,0
2017-04-11T03:23:14.144Z,0
2017-04-11T03:23:55.024Z,0
2017-04-11T03:24:35.912Z,0
2017-04-11T03:25:16.795Z,0
2017-04-11T03:25:57.672Z,0
2017-04-11T03:26:38.542Z,0
2017-04-11T03:27:19.422Z,0
2017-04-11T03:28:00.298Z,0
2017-04-11T03:28:41.182Z,0
2017-04-11T03:29:22.056Z,0
2017-04-11T03:30:02.991Z,0
2017-04-11T03:30:43.874Z,0
2017-04-11T03:31:27.393Z,0
2017-04-11T03:32:08.263Z,0
2017-04-11T03:32:49.142Z,0
2017-04-11T03:33:30.025Z,0
2017-04-11T03:34:10.905Z,0
2017-04-11T03:34:51.762Z,0
2017-04-11T03:35:32.639Z,0
2017-04-11T03:36:13.511Z,0
2017-04-11T03:36:54.382Z,0
2017-04-11T03:39:19.945Z,0
2017-04-11T03:40:00.822Z,0
2017-04-11T03:40:41.701Z,0
2017-04-11T03:41:22.577Z,0
2017-04-11T03:42:03.450Z,0
2017-04-11T03:42:44.328Z,0
2017-04-11T03:43:25.211Z,0
2017-04-11T03:44:06.094Z,0
2017-04-11T03:44:46.968Z,0
2017-04-11T03:45:27.848Z,0
2017-04-11T03:46:08.728Z,0
2017-04-11T03:46:49.607Z,0
2017-04-11T03:47:30.486Z,0
2017-04-11T03:48:11.480Z,0
2017-04-11T03:48:52.216Z,0
2017-04-11T03:49:33.140Z,0
2017-04-11T03:50:13.989Z,0
2017-04-11T03:50:54.870Z,0
2017-04-11T03:51:35.743Z,0
2017-04-11T03:53:34.476Z,0
2017-04-11T03:54:15.342Z,0
2017-04-11T03:54:56.220Z,0
2017-04-11T03:55:37.089Z,0
2017-04-11T03:56:17.965Z,0
2017-04-11T03:56:58.847Z,0
2017-04-11T03:57:39.726Z,0
2017-04-11T03:58:20.606Z,0
2017-04-11T03:59:01.481Z,0
2017-04-11T03:59:42.337Z,0
2017-04-11T04:00:23.205Z,0
2017-04-11T04:01:04.081Z,0
2017-04-11T04:01:44.961Z,0
2017-04-11T04:02:25.846Z,0
2017-04-11T04:03:06.724Z,0
2017-04-11T04:03:47.600Z,0
2017-04-11T04:04:28.475Z,0
2017-04-11T04:05:09.358Z,0
2017-04-11T04:05:50.232Z,0
2017-04-11T04:06:31.103Z,0
2017-04-11T04:07:11.978Z,0
2017-04-11T04:07:52.848Z,0
2017-04-11T04:08:33.724Z,0
2017-04-11T04:09:14.601Z,0
2017-04-11T04:09:55.476Z,0
2017-04-11T04:10:36.352Z,0
2017-04-11T04:11:17.229Z,0
2017-04-11T04:11:58.120Z,0
2017-04-11T04:12:38.996Z,0
2017-04-11T04:13:19.868Z,5
2017-04-11T04:14:00.744Z,5
2017-04-11T04:14:41.607Z,5
2017-04-11T04:15:22.487Z,5
2017-04-11T04:16:03.368Z,5
2017-04-11T04:16:44.238Z,5
2017-04-11T04:17:25.122Z,5
2017-04-11T04:18:05.990Z,5
2017-04-11T04:18:46.863Z,5
2017-04-11T04:19:27.760Z,5
2017-04-11T04:20:08.651Z,5
2017-04-11T04:20:49.519Z,5
2017-04-11T04:21:30.396Z,10
2017-04-11T04:22:11.271Z,10
2017-04-11T04:22:52.142Z,10
2017-04-11T04:23:33.020Z,10
2017-04-11T04:24:13.895Z,10
2017-04-11T04:24:54.788Z,10
2017-04-11T04:25:35.651Z,10
2017-04-11T04:26:16.525Z,10
2017-04-11T04:26:57.400Z,10
2017-04-11T04:27:38.284Z,15
2017-04-11T04:28:19.155Z,15
2017-04-11T04:29:00.040Z,15
2017-04-11T04:29:40.911Z,15
2017-04-11T04:30:21.793Z,15
2017-04-11T04:31:02.680Z,15
2017-04-11T04:31:43.557Z,15
2017-04-11T04:32:24.428Z,20
2017-04-11T04:33:05.305Z,20
2017-04-11T04:33:46.182Z,20
2017-04-11T04:34:27.061Z,20
2017-04-11T04:35:07.937Z,20
2017-04-11T04:35:48.809Z,20
2017-04-11T04:36:29.679Z,25
2017-04-11T04:37:10.556Z,25
2017-04-11T04:37:51.428Z,25
2017-04-11T04:38:32.315Z,25
2017-04-11T04:39:13.188Z,25
2017-04-11T04:39:54.047Z,25
2017-04-11T04:40:34.922Z,30
2017-04-11T04:41:15.798Z,30
2017-04-11T04:41:56.678Z,30
2017-04-11T04:42:37.570Z,30
2017-04-11T04:43:18.447Z,30
2017-04-11T04:43:59.315Z,30
2017-04-11T04:44:40.195Z,30
2017-04-11T04:45:21.058Z,35
2017-04-11T04:46:01.939Z,35
2017-04-11T04:46:42.812Z,35
2017-04-11T04:47:23.679Z,35
2017-04-11T04:48:04.555Z,35
2017-04-11T04:48:45.419Z,35
2017-04-11T04:49:26.296Z,40
2017-04-11T04:50:07.166Z,40
2017-04-11T04:50:48.044Z,40
2017-04-11T04:51:28.923Z,40
2017-04-11T04:52:09.805Z,40
2017-04-11T04:52:50.689Z,40
2017-04-11T04:53:31.597Z,45
2017-04-11T04:54:12.475Z,45
2017-04-11T04:54:53.330Z,45
2017-04-11T04:55:34.205Z,50
2017-04-11T04:56:15.148Z,50
2017-04-11T04:56:55.992Z,50
2017-04-11T04:57:36.865Z,50
2017-04-11T04:58:17.736Z,50
2017-04-11T04:58:58.619Z,50
2017-04-11T04:59:39.492Z,50
2017-04-11T05:00:20.366Z,50
2017-04-11T05:01:01.247Z,50
2017-04-11T05:01:42.125Z,55
2017-04-11T05:02:22.990Z,55
2017-04-11T05:03:03.869Z,55
2017-04-11T05:03:44.741Z,60
2017-04-11T05:04:25.616Z,55
2017-04-11T05:05:06.500Z,55
2017-04-11T05:05:47.372Z,55
2017-04-11T05:06:28.245Z,55
2017-04-11T05:07:09.122Z,55
2017-04-11T05:07:49.974Z,55
2017-04-11T05:08:30.850Z,55
2017-04-11T05:09:11.739Z,60
2017-04-11T05:09:52.620Z,65
2017-04-11T05:10:33.492Z,70
2017-04-11T05:11:14.369Z,75
2017-04-11T05:11:55.324Z,75
2017-04-11T05:12:36.210Z,80
2017-04-11T05:13:17.088Z,75
2017-04-11T05:13:57.964Z,80
2017-04-11T05:14:38.839Z,80
2017-04-11T05:15:19.715Z,80
2017-04-11T05:16:00.600Z,85
2017-04-11T05:16:41.488Z,80
2017-04-11T05:17:22.372Z,85
2017-04-11T05:18:03.250Z,85
2017-04-11T05:18:44.118Z,90
2017-04-11T05:19:24.996Z,95
2017-04-11T05:20:05.890Z,100
2017-04-11T05:20:46.786Z,105
2017-04-11T05:21:27.649Z,100
2017-04-11T05:22:08.517Z,95
2017-04-11T05:22:49.385Z,85
2017-04-11T05:23:30.267Z,85
2017-04-11T05:24:11.155Z,90
2017-04-11T05:24:52.031Z,110
2017-04-11T05:25:32.935Z,110
2017-04-11T05:26:13.806Z,100
2017-04-11T05:26:54.677Z,100
2017-04-11T05:27:35.558Z,95
2017-04-11T05:28:16.429Z,100
2017-04-11T05:28:57.306Z,110
2017-04-11T05:29:38.185Z,110
2017-04-11T05:30:19.070Z,100
2017-04-11T05:30:59.943Z,90
2017-04-11T05:31:40.825Z,80
2017-04-11T05:32:21.702Z,80
2017-04-11T05:33:02.585Z,85
2017-04-11T05:33:43.458Z,90
2017-04-11T05:34:24.354Z,95
2017-04-11T05:35:05.195Z,100
2017-04-11T05:35:46.063Z,95
2017-04-11T05:36:26.927Z,85
2017-04-11T05:37:07.803Z,90
2017-04-11T05:37:48.669Z,95
2017-04-11T05:38:29.547Z,95
2017-04-11T05:39:10.427Z,95
2017-04-11T05:39:51.305Z,100
2017-04-11T05:40:32.190Z,100
2017-04-11T05:41:13.123Z,100
2017-04-11T05:41:53.991Z,95
2017-04-11T05:42:34.858Z,90
2017-04-11T05:43:15.746Z,90
2017-04-11T05:43:56.615Z,85
2017-04-11T05:44:37.494Z,85
2017-04-11T05:45:18.363Z,85
2017-04-11T05:45:59.239Z,80
2017-04-11T05:46:40.120Z,80
2017-04-11T05:47:21.000Z,85
2017-04-11T05:48:01.874Z,90
2017-04-11T05:48:42.744Z,85
2017-04-11T05:49:23.619Z,85
2017-04-11T05:50:04.498Z,90
2017-04-11T05:50:45.378Z,90
2017-04-11T05:51:26.255Z,95
2017-04-11T05:52:07.154Z,95
2017-04-11T05:52:48.051Z,110
2017-04-11T05:53:28.927Z,110
2017-04-11T05:54:09.802Z,115
2017-04-11T05:54:50.675Z,110
2017-04-11T05:55:31.554Z,105
2017-04-11T05:56:12.445Z,105
2017-04-11T05:56:53.320Z,100
2017-04-11T05:57:34.208Z,90
2017-04-11T05:58:15.117Z,95
2017-04-11T05:58:55.994Z,100
2017-04-11T05:59:36.858Z,105
2017-04-11T06:00:17.738Z,110
2017-04-11T06:00:58.617Z,125
2017-04-11T06:01:39.503Z,125
2017-04-11T06:02:20.383Z,135
2017-04-11T06:03:01.318Z,140
2017-04-11T06:03:42.197Z,135
2017-04-11T06:04:23.078Z,140
2017-04-11T06:05:03.954Z,145
2017-04-11T06:05:44.828Z,135
2017-04-11T06:06:25.702Z,135
2017-04-11T06:07:06.577Z,140
2017-04-11T06:07:47.448Z,135
2017-04-11T06:08:28.331Z,130
2017-04-11T06:09:09.198Z,135
2017-04-11T06:09:50.082Z,135
2017-04-11T06:10:30.959Z,140
2017-04-11T06:11:11.858Z,135
2017-04-11T06:11:52.734Z,130
2017-04-11T06:12:33.610Z,125
2017-04-11T06:13:14.480Z,120
2017-04-11T06:13:55.359Z,110
2017-04-11T06:14:36.238Z,120
2017-04-11T06:15:17.116Z,130
2017-04-11T06:15:57.992Z,155
2017-04-11T06:16:38.867Z,170
2017-04-11T06:17:19.747Z,155
2017-04-11T06:18:00.623Z,145
2017-04-11T06:18:41.509Z,160
2017-04-11T06:19:22.390Z,160
2017-04-11T06:20:03.275Z,150
2017-04-11T06:20:44.154Z,160
2017-04-11T06:21:25.040Z,185
2017-04-11T06:22:05.912Z,190
2017-04-11T06:22:46.791Z,195
2017-04-11T06:23:27.669Z,195
2017-04-11T06:24:08.549Z,215
2017-04-11T06:24:49.406Z,250
2017-04-11T06:25:30.290Z,280
2017-04-11T06:26:11.223Z,285
2017-04-11T06:26:52.105Z,300
2017-04-11T06:27:32.971Z,300
2017-04-11T06:28:13.840Z,270
2017-04-11T06:28:54.729Z,265
2017-04-11T06:29:35.611Z,260
2017-04-11T06:30:16.507Z,270
2017-04-11T06:30:57.413Z,280
2017-04-11T06:31:38.264Z,230
2017-04-11T06:32:19.144Z,205
2017-04-11T06:33:00.824Z,200
2017-04-11T06:33:41.702Z,205
2017-04-11T06:34:22.584Z,185
2017-04-11T06:35:03.460Z,170
2017-04-11T06:35:44.333Z,240
2017-04-11T06:36:25.215Z,250
2017-04-11T06:37:06.110Z,285
2017-04-11T06:37:46.978Z,345
2017-04-11T06:38:27.851Z,355
2017-04-11T06:39:08.728Z,290
2017-04-11T06:39:49.601Z,250
2017-04-11T06:40:30.463Z,210
2017-04-11T06:41:11.343Z,220
2017-04-11T06:41:52.222Z,230
2017-04-11T06:42:33.098Z,220
2017-04-11T06:43:13.975Z,270
2017-04-11T06:43:54.847Z,255
2017-04-11T06:44:35.718Z,230
2017-04-11T06:45:16.599Z,245
2017-04-11T06:45:57.479Z,165
2017-04-11T06:46:38.355Z,150
2017-04-11T06:47:19.230Z,160
2017-04-11T06:48:00.115Z,140
2017-04-11T06:48:40.988Z,120
2017-04-11T06:49:21.870Z,125
2017-04-11T06:50:02.753Z,160
2017-04-11T06:50:43.659Z,210
2017-04-11T06:51:24.529Z,215
2017-04-11T06:52:05.406Z,250
2017-04-11T06:52:46.285Z,280
2017-04-11T06:53:27.153Z,340
2017-04-11T06:54:08.032Z,360
2017-04-11T06:54:48.901Z,315
2017-04-11T06:55:29.782Z,320
2017-04-11T06:56:10.660Z,370
2017-04-11T06:56:51.547Z,295
2017-04-11T06:57:32.424Z,255
2017-04-11T06:58:13.301Z,300
2017-04-11T06:58:54.167Z,270
2017-04-11T06:59:35.047Z,280
2017-04-11T07:00:15.915Z,280
2017-04-11T07:00:56.802Z,225
2017-04-11T07:01:37.675Z,225
2017-04-11T07:02:18.548Z,210
2017-04-11T07:02:59.433Z,210
2017-04-11T07:03:40.309Z,190
2017-04-11T07:04:21.186Z,160
2017-04-11T07:07:00.558Z,180
2017-04-11T07:07:41.437Z,200
2017-04-11T07:08:22.315Z,230
2017-04-11T07:09:03.193Z,295
2017-04-11T07:09:44.070Z,365
2017-04-11T07:10:24.948Z,370
2017-04-11T07:11:05.848Z,350
2017-04-11T07:11:46.719Z,345
2017-04-11T07:12:27.600Z,370
2017-04-11T07:13:08.478Z,375
2017-04-11T07:13:49.353Z,370
2017-04-11T07:14:30.228Z,315
2017-04-11T07:15:11.109Z,265
2017-04-11T07:15:51.987Z,330
2017-04-11T07:16:32.861Z,325
2017-04-11T07:17:13.742Z,330
2017-04-11T07:17:54.623Z,285
2017-04-11T07:18:35.502Z,225
2017-04-11T07:19:16.383Z,230
2017-04-11T07:19:57.260Z,215
2017-04-11T07:20:38.139Z,180
2017-04-11T07:21:19.022Z,175
2017-04-11T07:21:59.904Z,150
2017-04-11T07:22:40.779Z,160
2017-04-11T07:23:21.662Z,160
2017-04-11T07:24:02.544Z,150
2017-04-11T07:24:43.420Z,135
2017-04-11T07:25:24.301Z,135
2017-04-11T07:26:05.222Z,125
2017-04-11T07:26:46.056Z,110
2017-04-11T07:27:26.934Z,135
2017-04-11T07:28:07.805Z,160
2017-04-11T07:28:48.681Z,175
2017-04-11T07:29:29.593Z,175
2017-04-11T07:30:10.474Z,185
2017-04-11T07:30:51.341Z,175
2017-04-11T07:31:32.228Z,200
2017-04-11T07:32:13.099Z,220
2017-04-11T07:32:53.976Z,225
2017-04-11T07:33:34.860Z,180
2017-04-11T07:34:15.744Z,155
2017-04-11T07:34:56.621Z,170
2017-04-11T07:35:37.503Z,160
2017-04-11T07:36:18.376Z,135
2017-04-11T07:36:59.252Z,130
2017-04-11T07:37:40.179Z,110
2017-04-11T07:38:21.052Z,105
2017-04-11T07:39:01.932Z,110
2017-04-11T07:39:42.806Z,125
2017-04-11T07:40:23.688Z,130
2017-04-11T07:41:04.566Z,110
2017-04-11T07:41:45.456Z,95
2017-04-11T07:42:26.343Z,75
2017-04-11T07:43:07.223Z,70
2017-04-11T07:43:48.095Z,75
2017-04-11T07:44:28.970Z,70
2017-04-11T07:45:09.850Z,65
2017-04-11T07:45:50.719Z,60
2017-04-11T07:46:31.598Z,60
2017-04-11T07:47:12.475Z,55
2017-04-11T07:47:53.353Z,70
2017-04-11T07:48:34.229Z,95
2017-04-11T07:49:15.101Z,80
2017-04-11T07:49:55.979Z,75
2017-04-11T07:50:36.867Z,95
2017-04-11T07:51:17.748Z,90
2017-04-11T07:51:58.616Z,95
2017-04-11T07:52:39.532Z,95
2017-04-11T07:53:20.402Z,110
2017-04-11T07:54:01.279Z,115
2017-04-11T07:54:42.188Z,135
2017-04-11T07:55:23.066Z,140
2017-04-11T07:56:03.940Z,120
2017-04-11T07:56:44.812Z,85
2017-04-11T07:57:25.689Z,85
2017-04-11T07:58:06.570Z,110
2017-04-11T07:58:47.442Z,110
2017-04-11T07:59:28.322Z,100
2017-04-11T08:00:09.201Z,90
2017-04-11T08:00:50.074Z,65
2017-04-11T08:01:30.948Z,75
2017-04-11T08:02:11.829Z,95
2017-04-11T08:02:52.696Z,110
2017-04-11T08:03:33.573Z,110
2017-04-11T08:04:14.449Z,130
2017-04-11T08:04:55.318Z,105
2017-04-11T08:05:36.198Z,90
2017-04-11T08:06:17.080Z,90
2017-04-11T08:06:57.967Z,80
2017-04-11T08:07:38.836Z,85
2017-04-11T08:08:19.707Z,80
2017-04-11T08:09:00.584Z,105
2017-04-11T08:09:41.456Z,115
2017-04-11T08:10:22.336Z,145
2017-04-11T08:11:03.215Z,130
2017-04-11T08:11:44.092Z,130
2017-04-11T08:12:24.977Z,160
2017-04-11T08:13:05.858Z,155
2017-04-11T08:13:46.725Z,125
2017-04-11T08:14:27.604Z,145
2017-04-11T08:15:08.478Z,130
2017-04-11T08:15:49.351Z,105
2017-04-11T08:16:30.227Z,140
2017-04-11T08:17:11.109Z,190
2017-04-11T08:17:51.973Z,250
2017-04-11T08:18:32.866Z,240
2017-04-11T08:19:13.739Z,220
2017-04-11T08:19:54.615Z,190
2017-04-11T08:20:35.485Z,170
2017-04-11T08:21:16.362Z,165
2017-04-11T08:21:57.242Z,205
2017-04-11T08:22:38.121Z,210
2017-04-11T08:23:18.998Z,190
2017-04-11T08:23:59.872Z,180
2017-04-11T08:24:40.751Z,170
2017-04-11T08:25:21.628Z,130
2017-04-11T08:26:02.508Z,135
2017-04-11T08:26:43.385Z,140
2017-04-11T08:27:24.261Z,130
2017-04-11T08:28:05.143Z,120
2017-04-11T08:28:46.025Z,100
2017-04-11T08:29:26.905Z,130
2017-04-11T08:30:07.783Z,135
2017-04-11T08:30:48.660Z,160
2017-04-11T08:31:29.535Z,170
2017-04-11T08:32:10.414Z,115
2017-04-11T08:32:51.289Z,95
2017-04-11T08:33:32.161Z,80
2017-04-11T08:34:13.039Z,80
2017-04-11T08:34:53.922Z,80
2017-04-11T08:35:34.799Z,90
2017-04-11T08:36:15.676Z,90
2017-04-11T08:36:56.555Z,85
2017-04-11T08:37:37.432Z,95
2017-04-11T08:38:18.312Z,115
2017-04-11T08:38:59.223Z,125
2017-04-11T08:39:40.070Z,115
2017-04-11T08:40:20.952Z,95
2017-04-11T08:41:01.824Z,100
2017-04-11T08:41:42.706Z,130
2017-04-11T08:42:23.588Z,150
2017-04-11T08:43:04.467Z,180
2017-04-11T08:43:45.352Z,205
2017-04-11T08:44:26.230Z,195
2017-04-11T08:45:07.112Z,225
2017-04-11T08:45:47.988Z,270
2017-04-11T08:46:28.859Z,320
2017-04-11T08:47:09.734Z,610
2017-04-11T08:47:50.611Z,460
2017-04-11T08:48:31.493Z,545
2017-04-11T08:49:12.374Z,1025
2017-04-11T08:49:53.258Z,905
2017-04-11T08:50:34.911Z,600
2017-04-11T08:51:15.792Z,2215
2017-04-11T08:51:56.686Z,665
2017-04-11T08:52:37.564Z,2310
2017-04-11T08:53:18.446Z,2420
2017-04-11T08:53:59.321Z,2270
2017-04-11T08:54:40.184Z,2010
2017-04-11T08:55:21.054Z,1560
2017-04-11T08:56:01.935Z,2235
2017-04-11T08:56:42.811Z,1965
2017-04-11T08:57:23.688Z,1705
2017-04-11T08:58:04.568Z,1015
2017-04-11T08:58:45.445Z,330
2017-04-11T08:59:26.323Z,415
2017-04-11T09:00:07.206Z,440
2017-04-11T09:00:48.086Z,525
2017-04-11T09:01:28.966Z,575
2017-04-11T09:02:09.844Z,630
2017-04-11T09:02:50.727Z,675
2017-04-11T09:03:31.610Z,480
2017-04-11T09:04:12.493Z,470
2017-04-11T09:04:53.370Z,515
2017-04-11T09:05:34.250Z,650
2017-04-11T09:06:15.147Z,430
2017-04-11T09:06:56.024Z,545
2017-04-11T09:07:36.891Z,465
2017-04-11T09:08:17.767Z,470
2017-04-11T09:08:58.658Z,435
2017-04-11T09:09:39.540Z,485
2017-04-11T09:10:20.419Z,370
2017-04-11T09:11:01.302Z,240
2017-04-11T09:11:42.173Z,230
2017-04-11T09:12:23.053Z,235
2017-04-11T09:13:03.933Z,240
2017-04-11T09:13:44.813Z,250
2017-04-11T09:14:25.692Z,430
2017-04-11T09:15:06.579Z,645
2017-04-11T09:15:47.455Z,505
2017-04-11T09:16:28.332Z,650
2017-04-11T09:17:09.205Z,575
2017-04-11T09:17:50.084Z,575
2017-04-11T09:18:30.969Z,565
2017-04-11T09:19:11.858Z,695
2017-04-11T09:19:52.724Z,640
2017-04-11T09:20:33.601Z,570
2017-04-11T09:21:14.475Z,600
2017-04-11T09:21:55.360Z,690
2017-04-11T09:22:36.244Z,730
2017-04-11T09:23:17.121Z,815
2017-04-11T09:23:57.991Z,645
2017-04-11T09:24:38.874Z,560
2017-04-11T09:25:19.756Z,415
2017-04-11T09:26:00.631Z,490
2017-04-11T09:26:41.510Z,480
2017-04-11T09:27:22.381Z,1345
2017-04-11T09:28:03.262Z,525
2017-04-11T09:28:44.125Z,415
2017-04-11T09:29:25.004Z,380
2017-04-11T09:30:05.886Z,380
2017-04-11T09:30:46.770Z,415
2017-04-11T09:31:27.649Z,390
2017-04-11T09:32:08.532Z,420
2017-04-11T09:32:49.419Z,410
2017-04-11T09:33:30.306Z,415
2017-04-11T09:34:11.182Z,375
2017-04-11T09:34:52.063Z,310
2017-04-11T09:35:32.964Z,310
2017-04-11T09:36:13.835Z,285
2017-04-11T09:36:54.722Z,240
2017-04-11T09:37:35.619Z,210
2017-04-11T09:38:16.499Z,175
2017-04-11T09:38:57.374Z,170
2017-04-11T09:39:38.255Z,195
2017-04-11T09:40:19.135Z,210
2017-04-11T09:41:00.014Z,225
2017-04-11T09:41:40.905Z,230
2017-04-11T09:42:21.780Z,225
2017-04-11T09:43:02.662Z,230
2017-04-11T09:43:43.567Z,195
2017-04-11T09:44:24.426Z,160
2017-04-11T09:45:05.305Z,140
2017-04-11T09:45:46.182Z,140
2017-04-11T09:46:27.061Z,125
2017-04-11T09:47:07.942Z,125
2017-04-11T09:47:48.818Z,130
2017-04-11T09:48:29.704Z,135
2017-04-11T09:49:10.586Z,120
2017-04-11T09:49:51.469Z,120
2017-04-11T09:50:32.353Z,110
2017-04-11T09:51:13.230Z,110